createdAt,value
2023-01-27T00:00:29.339Z,28.23
2023-01-27T00:02:56.089Z,31.97
2023-01-27T00:05:22.789Z,35.30
2023-01-27T00:07:49.815Z,29.47
2023-01-27T00:10:20.413Z,33.17
2023-01-27T00:13:06.509Z,31.37
2023-01-27T00:15:34.331Z,32.27
2023-01-27T00:18:01.793Z,22.70
2023-01-27T00:20:47.235Z,27.00
2023-01-27T00:23:34.492Z,31.43
2023-01-27T00:26:06.607Z,25.77
2023-01-27T00:28:37.144Z,24.97
2023-01-27T00:31:04.588Z,33.07
2023-01-27T00:33:31.682Z,34.20
2023-01-27T00:35:58.813Z,30.53
2023-01-27T00:38:27.496Z,33.97
2023-01-27T00:41:12.750Z,35.13
2023-01-27T00:43:39.372Z,28.13
2023-01-27T00:46:06.060Z,32.27
2023-01-27T00:48:32.784Z,32.73
2023-01-27T00:50:59.500Z,34.33
2023-01-27T00:53:26.512Z,31.67
2023-01-27T00:55:53.109Z,29.00
2023-01-27T00:58:20.230Z,34.40
2023-01-27T01:00:46.889Z,36.73
2023-01-27T01:03:13.525Z,34.50
2023-01-27T01:05:40.164Z,28.40
2023-01-27T01:08:06.886Z,29.97
2023-01-27T01:10:33.440Z,28.57
2023-01-27T01:12:59.991Z,31.77
2023-01-27T01:15:26.749Z,33.33
2023-01-27T01:17:53.375Z,28.77
2023-01-27T01:20:21.432Z,27.13
2023-01-27T01:22:48.116Z,31.73
2023-01-27T01:25:14.810Z,35.40
2023-01-27T01:27:44.743Z,26.60
2023-01-27T01:30:12.571Z,35.60
2023-01-27T01:32:39.373Z,30.30
2023-01-27T01:35:06.363Z,28.07
2023-01-27T01:37:32.947Z,36.50
2023-01-27T01:39:59.562Z,30.23
2023-01-27T01:42:26.304Z,29.00
2023-01-27T01:45:31.631Z,30.13
2023-01-27T01:48:00.156Z,38.40
2023-01-27T01:50:27.503Z,27.40
2023-01-27T01:52:54.563Z,26.60
2023-01-27T01:55:21.680Z,45.27
2023-01-27T01:57:48.823Z,29.20
2023-01-27T02:00:16.115Z,28.77
2023-01-27T02:02:46.802Z,28.27
2023-01-27T02:05:24.445Z,32.17
2023-01-27T02:07:57.891Z,30.13
2023-01-27T02:10:25.169Z,29.93
2023-01-27T02:12:51.858Z,24.50
2023-01-27T02:15:18.959Z,38.77
2023-01-27T02:17:45.669Z,27.63
2023-01-27T02:20:31.861Z,29.43
2023-01-27T02:23:20.740Z,27.30
2023-01-27T02:25:59.128Z,25.00
2023-01-27T02:28:30.667Z,25.00
2023-01-27T02:30:57.692Z,29.57
2023-01-27T02:33:24.921Z,23.57
2023-01-27T02:36:18.218Z,25.63
2023-01-27T02:38:53.373Z,22.67
2023-01-27T02:41:31.742Z,24.70
2023-01-27T02:44:00.084Z,26.53
2023-01-27T02:46:27.020Z,29.87
2023-01-27T02:48:54.052Z,21.80
2023-01-27T02:51:20.692Z,24.37
2023-01-27T02:53:47.734Z,22.40
2023-01-27T02:56:14.388Z,24.57
2023-01-27T02:58:42.140Z,21.03
2023-01-27T03:01:13.514Z,20.90
2023-01-27T03:03:44.228Z,25.00
2023-01-27T03:06:11.289Z,22.77
2023-01-27T03:08:38.189Z,20.23
2023-01-27T03:11:05.921Z,22.23
2023-01-27T03:13:32.752Z,23.73
2023-01-27T03:16:19.249Z,19.33
2023-01-27T03:18:47.389Z,21.03
2023-01-27T03:21:14.478Z,16.43
2023-01-27T03:23:41.532Z,20.80
2023-01-27T03:26:09.740Z,18.33
2023-01-27T03:28:39.071Z,18.30
2023-01-27T03:31:19.449Z,19.80
2023-01-27T03:33:53.745Z,20.83
2023-01-27T03:36:52.043Z,28.23
2023-01-27T03:39:37.103Z,18.77
2023-01-27T03:42:22.379Z,22.13
2023-01-27T03:45:09.649Z,19.33
2023-01-27T03:47:36.359Z,18.00
2023-01-27T03:50:02.950Z,17.90
2023-01-27T03:52:29.692Z,18.17
2023-01-27T03:54:56.299Z,19.87
2023-01-27T03:57:22.884Z,20.33
2023-01-27T03:59:49.489Z,18.40
2023-01-27T04:02:34.524Z,19.60
2023-01-27T04:05:19.795Z,16.43
2023-01-27T04:07:46.421Z,18.13
2023-01-27T04:10:13.038Z,18.07
2023-01-27T04:12:39.620Z,14.77
2023-01-27T04:15:06.986Z,16.83
2023-01-27T04:17:38.799Z,18.20
2023-01-27T04:20:06.137Z,15.27
2023-01-27T04:22:32.762Z,15.37
2023-01-27T04:24:59.452Z,20.73
2023-01-27T04:27:27.369Z,17.70
2023-01-27T04:29:53.990Z,18.63
2023-01-27T04:32:20.717Z,16.13
2023-01-27T04:34:47.265Z,14.67
2023-01-27T04:37:13.918Z,14.93
2023-01-27T04:39:41.955Z,17.93
2023-01-27T04:42:08.621Z,14.77
2023-01-27T04:44:35.231Z,14.30
2023-01-27T04:47:01.865Z,16.33
2023-01-27T04:49:28.557Z,13.47
2023-01-27T04:51:55.606Z,11.37
2023-01-27T04:54:22.354Z,12.77
2023-01-27T04:57:00.345Z,12.77
2023-01-27T04:59:27.190Z,14.50
2023-01-27T05:01:53.904Z,14.40
2023-01-27T05:04:20.546Z,11.00
2023-01-27T05:06:47.124Z,14.70
2023-01-27T05:09:13.856Z,15.07
2023-01-27T05:11:40.419Z,13.73
2023-01-27T05:14:06.956Z,17.80
2023-01-27T05:16:33.594Z,17.00
2023-01-27T05:19:00.298Z,11.80
2023-01-27T05:21:28.421Z,17.30
2023-01-27T05:23:55.143Z,15.33
2023-01-27T05:26:26.715Z,13.63
2023-01-27T05:28:54.145Z,14.60
2023-01-27T05:31:26.836Z,16.67
2023-01-27T05:33:54.814Z,14.10
2023-01-27T05:36:22.862Z,15.43
2023-01-27T05:38:49.865Z,14.77
2023-01-27T05:41:17.710Z,16.13
2023-01-27T05:43:45.721Z,15.97
2023-01-27T05:46:18.034Z,15.07
2023-01-27T05:48:56.377Z,15.97
2023-01-27T05:51:24.925Z,17.63
2023-01-27T05:53:52.274Z,15.47
2023-01-27T05:56:19.668Z,15.53
2023-01-27T05:58:46.460Z,17.47
2023-01-27T06:01:21.052Z,18.57
2023-01-27T06:03:48.442Z,19.90
2023-01-27T06:06:16.885Z,16.90
2023-01-27T06:08:43.647Z,13.40
2023-01-27T06:11:10.276Z,13.37
2023-01-27T06:13:38.734Z,15.27
2023-01-27T06:16:11.140Z,12.40
2023-01-27T06:18:38.314Z,13.30
2023-01-27T06:21:07.112Z,16.03
2023-01-27T06:23:34.189Z,14.53
2023-01-27T06:26:03.499Z,17.20
2023-01-27T06:28:30.611Z,18.70
2023-01-27T06:31:05.108Z,17.77
2023-01-27T06:33:32.019Z,16.67
2023-01-27T06:36:07.456Z,15.50
2023-01-27T06:38:34.883Z,15.70
2023-01-27T06:41:01.581Z,17.30
2023-01-27T06:43:28.541Z,13.63
2023-01-27T06:45:57.456Z,18.57
2023-01-27T06:48:24.866Z,19.80
2023-01-27T06:50:53.113Z,16.77
2023-01-27T06:53:19.857Z,15.83
2023-01-27T06:55:46.413Z,17.17
2023-01-27T06:58:14.801Z,17.27
2023-01-27T07:00:42.365Z,14.90
2023-01-27T07:05:41.085Z,16.40
2023-01-27T07:08:07.798Z,13.30
2023-01-27T07:10:34.594Z,16.80
2023-01-27T07:13:05.999Z,14.80
2023-01-27T07:15:32.664Z,13.20
2023-01-27T07:18:00.470Z,13.30
2023-01-27T07:20:28.758Z,13.80
2023-01-27T07:22:59.710Z,12.23
2023-01-27T07:25:27.457Z,13.37
2023-01-27T07:27:54.074Z,12.33
2023-01-27T07:30:20.715Z,12.83
2023-01-27T07:32:47.399Z,12.77
2023-01-27T07:35:14.005Z,15.50
2023-01-27T07:37:41.488Z,11.03
2023-01-27T07:40:10.558Z,12.43
2023-01-27T07:42:37.116Z,13.10
2023-01-27T07:45:04.266Z,13.23
2023-01-27T07:47:30.827Z,10.47
2023-01-27T07:49:57.598Z,24.50
2023-01-27T07:52:24.140Z,11.83
2023-01-27T07:54:50.710Z,15.27
2023-01-27T07:57:17.516Z,11.67
2023-01-27T07:59:44.192Z,17.37
2023-01-27T08:02:11.343Z,11.30
2023-01-27T08:04:52.126Z,16.57
2023-01-27T08:07:19.972Z,13.23
2023-01-27T08:09:46.537Z,12.37
2023-01-27T08:12:13.200Z,12.50
2023-01-27T08:14:39.784Z,11.60
2023-01-27T08:17:06.452Z,11.03
2023-01-27T08:19:33.124Z,14.97
2023-01-27T08:21:59.682Z,11.40
2023-01-27T08:24:26.443Z,16.87
2023-01-27T08:26:53.092Z,12.93
2023-01-27T08:29:19.758Z,13.40
2023-01-27T08:31:46.492Z,14.10
2023-01-27T08:34:13.442Z,14.73
2023-01-27T08:36:43.601Z,10.33
2023-01-27T08:39:11.133Z,11.37
2023-01-27T08:41:37.916Z,13.10
2023-01-27T08:44:04.787Z,9.73
2023-01-27T08:46:34.192Z,9.13
2023-01-27T08:49:00.944Z,10.07
2023-01-27T08:51:27.743Z,11.23
2023-01-27T08:53:54.358Z,7.47
2023-01-27T08:56:21.469Z,11.40
2023-01-27T08:58:48.544Z,6.40
2023-01-27T09:01:15.863Z,7.10
2023-01-27T09:03:42.724Z,6.23
2023-01-27T09:06:10.819Z,5.23
2023-01-27T09:08:37.739Z,9.30
2023-01-27T09:11:16.689Z,5.40
2023-01-27T09:13:43.963Z,9.60
2023-01-27T09:16:10.714Z,5.20
2023-01-27T09:18:37.655Z,3.93
2023-01-27T09:21:05.723Z,9.03
2023-01-27T09:23:33.581Z,4.00
2023-01-27T09:26:00.466Z,5.30
2023-01-27T09:28:27.365Z,4.53
2023-01-27T09:30:57.892Z,2.80
2023-01-27T09:33:25.975Z,3.83
2023-01-27T09:36:08.288Z,2.73
2023-01-27T09:38:37.645Z,2.40
2023-01-27T09:41:23.133Z,4.30
2023-01-27T09:43:55.457Z,3.60
2023-01-27T09:46:36.976Z,2.10
2023-01-27T09:49:17.871Z,4.17
2023-01-27T09:51:59.381Z,2.20
2023-01-27T09:54:28.937Z,4.93
2023-01-27T09:57:23.381Z,3.50
2023-01-27T10:00:07.718Z,4.00
2023-01-27T10:02:37.336Z,2.77
2023-01-27T10:05:09.755Z,2.07
2023-01-27T10:08:16.598Z,1.90
2023-01-27T10:10:49.626Z,4.33
2023-01-27T10:13:28.697Z,2.27
2023-01-27T10:15:56.748Z,1.90
2023-01-27T10:18:48.192Z,2.60
2023-01-27T10:21:26.966Z,2.43
2023-01-27T10:24:12.031Z,2.17
2023-01-27T10:26:45.856Z,3.60
2023-01-27T10:29:25.791Z,2.80
2023-01-27T10:32:08.020Z,5.13
2023-01-27T10:34:36.721Z,2.40
2023-01-27T10:37:06.649Z,4.03
2023-01-27T10:39:51.616Z,2.20
2023-01-27T10:42:18.172Z,2.03
2023-01-27T10:45:00.168Z,2.20
2023-01-27T10:47:54.053Z,4.67
2023-01-27T10:50:30.584Z,2.83
2023-01-27T10:53:12.780Z,3.73
2023-01-27T10:56:00.653Z,2.77
2023-01-27T10:58:36.119Z,2.33
2023-01-27T11:01:23.718Z,3.37
2023-01-27T11:03:58.338Z,2.70
2023-01-27T11:06:29.095Z,6.03
2023-01-27T11:09:10.745Z,2.20
2023-01-27T11:11:46.498Z,2.50
2023-01-27T11:14:42.264Z,4.63
2023-01-27T11:17:27.713Z,5.60
2023-01-27T11:20:03.921Z,3.40
2023-01-27T11:22:38.243Z,4.60
2023-01-27T11:25:13.658Z,6.80
2023-01-27T11:28:03.368Z,2.10
2023-01-27T11:30:39.155Z,3.03
2023-01-27T11:33:11.839Z,3.10
2023-01-27T11:35:40.913Z,2.13
2023-01-27T11:38:17.456Z,4.30
2023-01-27T11:40:45.457Z,3.27
2023-01-27T11:43:16.462Z,2.00
2023-01-27T11:45:44.825Z,2.60
2023-01-27T11:48:14.429Z,1.83
2023-01-27T11:50:42.389Z,1.80
2023-01-27T11:53:27.515Z,3.67
2023-01-27T11:56:03.073Z,4.53
2023-01-27T11:58:43.586Z,3.43
2023-01-27T12:01:15.801Z,2.63
2023-01-27T12:04:00.837Z,2.73
2023-01-27T12:06:38.676Z,2.10
2023-01-27T12:09:05.582Z,2.50
2023-01-27T12:11:32.389Z,2.33
2023-01-27T12:14:01.673Z,3.90
2023-01-27T12:16:44.892Z,1.97
2023-01-27T12:19:24.983Z,3.00
2023-01-27T12:21:56.215Z,3.90
2023-01-27T12:24:33.076Z,3.67
2023-01-27T12:27:02.951Z,3.30
2023-01-27T12:29:41.777Z,2.63
2023-01-27T12:32:22.484Z,2.63
2023-01-27T12:34:52.405Z,3.20
2023-01-27T12:37:23.327Z,2.23
2023-01-27T12:39:56.958Z,2.83
2023-01-27T12:42:47.191Z,3.43
2023-01-27T12:45:26.895Z,2.93
2023-01-27T12:48:01.944Z,5.70
2023-01-27T12:50:31.325Z,8.30
2023-01-27T12:53:05.944Z,2.47
2023-01-27T12:55:36.401Z,2.80
2023-01-27T12:58:03.558Z,3.70
2023-01-27T13:00:31.026Z,2.40
2023-01-27T13:03:05.869Z,2.30
2023-01-27T13:05:42.077Z,3.10
2023-01-27T13:08:14.653Z,2.57
2023-01-27T13:10:52.311Z,2.40
2023-01-27T13:13:21.792Z,4.30
2023-01-27T13:15:54.022Z,3.40
2023-01-27T13:18:23.966Z,3.30
2023-01-27T13:20:54.934Z,4.33
2023-01-27T13:23:35.007Z,5.33
2023-01-27T13:26:04.626Z,5.63
2023-01-27T13:28:52.679Z,4.70
2023-01-27T13:31:32.610Z,3.83
2023-01-27T13:33:59.295Z,3.57
2023-01-27T13:36:38.012Z,3.60
2023-01-27T13:39:04.665Z,5.00
2023-01-27T13:41:42.832Z,3.37
2023-01-27T13:44:27.947Z,1.90
2023-01-27T13:46:57.605Z,4.80
2023-01-27T13:49:38.152Z,1.73
2023-01-27T13:52:08.232Z,2.70
2023-01-27T13:54:34.955Z,2.13
2023-01-27T13:57:24.101Z,2.63
2023-01-27T14:00:04.978Z,4.30
2023-01-27T14:03:05.051Z,3.73
2023-01-27T14:05:38.377Z,4.93
2023-01-27T14:08:19.819Z,3.77
2023-01-27T14:11:02.668Z,2.67
2023-01-27T14:13:44.682Z,2.30
2023-01-27T14:16:29.370Z,4.10
2023-01-27T14:19:26.401Z,2.17
2023-01-27T14:22:27.620Z,2.23
2023-01-27T14:25:03.485Z,3.87
2023-01-27T14:27:35.554Z,2.60
2023-01-27T14:30:05.405Z,4.53
2023-01-27T14:32:53.500Z,7.80
2023-01-27T14:35:39.193Z,2.63
2023-01-27T14:38:14.749Z,5.10
2023-01-27T14:41:00.948Z,5.93
2023-01-27T14:43:30.725Z,4.63
2023-01-27T14:46:13.025Z,8.93
2023-01-27T14:48:52.428Z,4.83
2023-01-27T14:51:40.459Z,4.40
2023-01-27T14:54:59.845Z,3.13
2023-01-27T14:57:53.113Z,3.57
2023-01-27T15:00:19.692Z,6.10
2023-01-27T15:03:05.107Z,2.77
2023-01-27T15:06:02.819Z,4.40
2023-01-27T15:08:49.461Z,3.10
2023-01-27T15:11:36.076Z,4.57
2023-01-27T15:14:21.136Z,2.63
2023-01-27T15:17:35.779Z,3.83
2023-01-27T15:20:26.461Z,3.30
2023-01-27T15:23:05.514Z,6.40
2023-01-27T15:25:42.121Z,1.70
2023-01-27T15:28:13.629Z,3.03
2023-01-27T15:30:41.572Z,4.30
2023-01-27T15:33:51.501Z,4.97
2023-01-27T15:36:31.645Z,1.73
2023-01-27T15:39:10.204Z,3.00
2023-01-27T15:41:38.364Z,3.40
2023-01-27T15:44:24.257Z,4.10
2023-01-27T15:46:52.963Z,2.63
2023-01-27T15:49:21.295Z,6.63
2023-01-27T15:51:50.922Z,3.30
2023-01-27T15:54:31.668Z,5.40
2023-01-27T15:57:00.527Z,2.40
2023-01-27T15:59:30.689Z,3.37
2023-01-27T16:02:01.811Z,2.67
2023-01-27T16:04:32.201Z,3.57
2023-01-27T16:07:04.480Z,1.60
2023-01-27T16:09:42.393Z,2.10
2023-01-27T16:12:26.114Z,1.90
2023-01-27T16:15:02.056Z,4.30
2023-01-27T16:17:32.868Z,3.40
2023-01-27T16:20:15.528Z,3.60
2023-01-27T16:22:44.436Z,4.90
2023-01-27T16:25:19.422Z,4.70
2023-01-27T16:28:07.275Z,3.70
2023-01-27T16:30:47.726Z,4.57
2023-01-27T16:33:25.090Z,9.07
2023-01-27T16:35:54.801Z,3.70
2023-01-27T16:38:27.682Z,7.73
2023-01-27T16:41:01.508Z,5.03
2023-01-27T16:43:33.581Z,6.50
2023-01-27T16:46:01.607Z,5.50
2023-01-27T16:48:41.841Z,7.40
2023-01-27T16:51:15.110Z,7.93
2023-01-27T16:53:45.647Z,5.77
2023-01-27T16:56:32.850Z,8.53
2023-01-27T16:59:12.856Z,7.10
2023-01-27T17:01:41.875Z,5.70
2023-01-27T17:04:19.993Z,6.13
2023-01-27T17:06:51.449Z,6.77
2023-01-27T17:09:26.834Z,7.93
2023-01-27T17:11:55.767Z,4.03
2023-01-27T17:14:31.402Z,5.93
2023-01-27T17:17:01.581Z,4.07
2023-01-27T17:19:31.765Z,6.77
2023-01-27T17:21:58.550Z,3.30
2023-01-27T17:24:29.494Z,7.50
2023-01-27T17:27:38.708Z,4.77
2023-01-27T17:30:12.630Z,2.63
2023-01-27T17:32:41.269Z,3.00
2023-01-27T17:35:20.951Z,7.57
2023-01-27T17:37:47.683Z,5.80
2023-01-27T17:40:23.584Z,8.93
2023-01-27T17:42:50.444Z,3.47
2023-01-27T17:45:20.560Z,3.20
2023-01-27T17:47:47.694Z,2.97
2023-01-27T17:50:22.155Z,3.20
2023-01-27T17:52:52.816Z,3.23
2023-01-27T17:55:25.383Z,2.50
2023-01-27T17:58:03.796Z,3.47
2023-01-27T18:00:34.459Z,3.83
2023-01-27T18:03:07.308Z,9.60
2023-01-27T18:05:34.290Z,6.90
2023-01-27T18:08:01.765Z,9.10
2023-01-27T18:10:34.562Z,3.40
2023-01-27T18:13:17.719Z,3.67
2023-01-27T18:16:19.683Z,4.47
2023-01-27T18:18:46.862Z,5.40
2023-01-27T18:21:15.777Z,5.53
2023-01-27T18:23:52.711Z,5.40
2023-01-27T18:26:30.647Z,7.47
2023-01-27T18:29:03.956Z,5.10
2023-01-27T18:31:45.369Z,3.67
2023-01-27T18:34:12.080Z,5.57
2023-01-27T18:36:53.286Z,4.93
2023-01-27T18:39:40.242Z,6.10
2023-01-27T18:42:16.032Z,5.17
2023-01-27T18:44:42.990Z,6.20
2023-01-27T18:47:18.897Z,4.47
2023-01-27T18:49:49.799Z,7.50
2023-01-27T18:52:16.532Z,5.10
2023-01-27T18:54:44.030Z,3.90
2023-01-27T18:57:11.337Z,5.47
2023-01-27T18:59:38.296Z,5.13
2023-01-27T19:02:12.219Z,7.00
2023-01-27T19:04:38.990Z,6.70
2023-01-27T19:07:17.563Z,3.40
2023-01-27T19:09:45.877Z,4.40
2023-01-27T19:12:12.638Z,6.40
2023-01-27T19:14:41.503Z,4.00
2023-01-27T19:17:22.107Z,4.27
2023-01-27T19:19:49.177Z,3.43
2023-01-27T19:22:17.893Z,5.77
2023-01-27T19:24:45.612Z,4.27
2023-01-27T19:27:14.800Z,7.00
2023-01-27T19:29:41.994Z,6.27
2023-01-27T19:32:15.360Z,6.53
2023-01-27T19:34:42.289Z,7.73
2023-01-27T19:37:18.305Z,3.23
2023-01-27T19:39:46.432Z,3.70
2023-01-27T19:42:14.779Z,6.57
2023-01-27T19:44:41.616Z,5.17
2023-01-27T19:47:13.382Z,4.90
2023-01-27T19:49:40.651Z,4.10
2023-01-27T19:52:07.615Z,4.27
2023-01-27T19:54:34.577Z,7.67
2023-01-27T19:57:01.741Z,6.53
2023-01-27T19:59:28.582Z,6.70
2023-01-27T20:01:56.692Z,3.90
2023-01-27T20:04:23.596Z,6.20
2023-01-27T20:06:50.302Z,4.23
2023-01-27T20:09:17.154Z,6.70
2023-01-27T20:11:44.791Z,6.50
2023-01-27T20:14:16.912Z,7.67
2023-01-27T20:16:43.981Z,5.33
2023-01-27T20:19:15.156Z,5.63
2023-01-27T20:21:43.112Z,7.40
2023-01-27T20:24:14.898Z,5.47
2023-01-27T20:26:41.712Z,3.77
2023-01-27T20:29:08.487Z,6.67
2023-01-27T20:31:35.439Z,4.07
2023-01-27T20:34:02.187Z,4.63
2023-01-27T20:36:29.040Z,3.63
2023-01-27T20:38:55.975Z,3.77
2023-01-27T20:41:24.431Z,4.33
2023-01-27T20:43:56.095Z,2.87
2023-01-27T20:46:22.791Z,3.20
2023-01-27T20:48:49.660Z,2.50
2023-01-27T20:51:19.595Z,2.70
2023-01-27T20:53:46.711Z,4.10
2023-01-27T20:56:18.673Z,3.80
2023-01-27T20:58:54.347Z,3.20
2023-01-27T21:01:30.225Z,2.47
2023-01-27T21:03:57.015Z,3.37
2023-01-27T21:06:23.747Z,4.70
2023-01-27T21:08:50.454Z,2.30
2023-01-27T21:11:18.772Z,4.33
2023-01-27T21:13:45.857Z,3.07
2023-01-27T21:16:13.050Z,5.60
2023-01-27T21:18:44.588Z,2.33
2023-01-27T21:21:28.443Z,5.93
2023-01-27T21:24:00.483Z,3.77
2023-01-27T21:26:27.251Z,5.40
2023-01-27T21:28:53.978Z,3.70
2023-01-27T21:31:24.419Z,4.20
2023-01-27T21:33:51.225Z,3.37
2023-01-27T21:36:18.471Z,3.60
2023-01-27T21:38:45.362Z,9.93
2023-01-27T21:41:31.934Z,2.97
2023-01-27T21:44:17.203Z,5.37
2023-01-27T21:46:43.866Z,3.10
2023-01-27T21:49:10.530Z,3.80
2023-01-27T21:51:37.194Z,3.83
2023-01-27T21:54:06.669Z,3.13
2023-01-27T21:56:33.348Z,3.47
2023-01-27T21:59:01.059Z,4.40
2023-01-27T22:01:28.996Z,3.03
2023-01-27T22:03:56.839Z,3.10
2023-01-27T22:06:23.433Z,3.30
2023-01-27T22:08:53.508Z,3.43
2023-01-27T22:11:20.177Z,3.67
2023-01-27T22:13:47.271Z,3.70
2023-01-27T22:16:17.610Z,3.50
2023-01-27T22:18:44.489Z,3.97
2023-01-27T22:21:13.349Z,3.30
2023-01-27T22:23:44.876Z,3.30
2023-01-27T22:26:16.720Z,4.37
2023-01-27T22:28:44.139Z,4.53
2023-01-27T22:31:18.085Z,4.83
2023-01-27T22:33:44.778Z,5.20
2023-01-27T22:36:12.997Z,7.10
2023-01-27T22:38:43.906Z,5.07
2023-01-27T22:41:21.070Z,3.03
2023-01-27T22:43:50.503Z,4.97
2023-01-27T22:46:17.867Z,4.23
2023-01-27T22:48:49.059Z,3.83
2023-01-27T22:51:15.931Z,4.00
2023-01-27T22:53:46.209Z,4.67
2023-01-27T22:56:20.229Z,4.70
2023-01-27T22:58:46.869Z,4.33
2023-01-27T23:01:16.576Z,5.60
2023-01-27T23:03:50.772Z,4.17
2023-01-27T23:06:17.519Z,3.87
2023-01-27T23:08:47.362Z,3.90
2023-01-27T23:11:19.662Z,3.60
2023-01-27T23:13:46.291Z,3.60
2023-01-27T23:16:15.389Z,3.90
2023-01-27T23:18:50.472Z,4.00
2023-01-27T23:21:17.113Z,4.90
2023-01-27T23:23:46.458Z,4.13
2023-01-27T23:26:24.522Z,7.23
2023-01-27T23:28:51.235Z,4.63
2023-01-27T23:31:18.085Z,4.00
2023-01-27T23:33:55.492Z,5.57
2023-01-27T23:36:23.207Z,5.70
2023-01-27T23:38:49.855Z,3.50
2023-01-27T23:41:21.702Z,5.90
2023-01-27T23:43:58.149Z,3.63
2023-01-27T23:46:25.506Z,3.90
2023-01-27T23:48:55.436Z,5.60
2023-01-27T23:51:22.941Z,4.80
2023-01-27T23:53:49.896Z,4.97
2023-01-27T23:56:21.172Z,5.57
2023-01-27T23:58:50.062Z,3.10
